Time;durP1;ratioP1;P1;durP2;ratioP2;P2;SDS_P1;SDS_P2;PMS_P1;PMS_P2;Temp;Humidity;BMP_temperature;BMP_pressure;BME280_temperature;BME280_humidity;BME280_pressure;Samples;Min_cycle;Max_cycle;Signal;HPM_P1;HPM_P2
2022/11/26 15:03:23;;;;;;;12.73;3.35;;;10.00;81.50;;;;;;5153201;27;20106;-63
2022/11/26 15:05:49;;;;;;;15.63;3.42;;;10.00;81.90;;;;;;5134275;27;20030;-62
2022/11/26 15:08:18;;;;;;;16.83;6.25;;;10.00;81.90;;;;;;5152717;27;20027;-62
2022/11/26 15:10:51;;;;;;;15.13;3.63;;;10.10;81.50;;;;;;5152456;27;20043;-61
2022/11/26 15:13:31;;;;;;;14.65;3.15;;;10.10;81.20;;;;;;5152380;27;20098;-63
2022/11/26 15:15:58;;;;;;;13.00;3.15;;;10.20;81.20;;;;;;5152692;27;20023;-64
2022/11/26 15:18:34;;;;;;;14.02;3.78;;;10.10;81.10;;;;;;5152170;27;20026;-63
2022/11/26 15:21:01;;;;;;;13.77;3.90;;;10.10;81.10;;;;;;5152207;27;20110;-62
2022/11/26 15:23:35;;;;;;;19.67;5.15;;;10.00;81.20;;;;;;5152220;27;20027;-63
2022/11/26 15:26:03;;;;;;;21.42;4.25;;;10.00;81.60;;;;;;5152139;27;20079;-62
2022/11/26 15:28:37;;;;;;;22.02;3.45;;;9.90;81.80;;;;;;5152182;27;20110;-68
2022/11/26 15:31:07;;;;;;;18.90;4.35;;;9.80;81.90;;;;;;5151851;27;20474;-62
2022/11/26 15:33:34;;;;;;;16.05;3.63;;;9.80;82.10;;;;;;5151646;27;20022;-63
2022/11/26 15:36:00;;;;;;;27.70;5.35;;;9.80;82.10;;;;;;5152010;27;20027;-62
2022/11/26 15:38:29;;;;;;;13.95;4.25;;;9.70;82.30;;;;;;5151531;27;20034;-61
2022/11/26 15:41:05;;;;;;;20.08;5.22;;;9.50;82.80;;;;;;5151896;27;20022;-64
2022/11/26 15:43:44;;;;;;;18.95;4.93;;;9.60;82.80;;;;;;5151684;27;20023;-63
2022/11/26 15:46:09;;;;;;;11.48;3.33;;;9.60;82.70;;;;;;5151445;27;20019;-62
2022/11/26 15:48:44;;;;;;;18.70;4.75;;;9.60;82.80;;;;;;5151883;27;20029;-63
2022/11/26 15:51:12;;;;;;;17.27;6.60;;;9.50;82.80;;;;;;5150967;27;20030;-61
2022/11/26 15:53:44;;;;;;;15.88;5.55;;;9.50;83.00;;;;;;5151373;27;20489;-63
2022/11/26 15:56:15;;;;;;;24.20;11.52;;;9.50;82.90;;;;;;5152323;27;20489;-63
2022/11/26 15:58:41;;;;;;;25.85;12.57;;;9.50;82.90;;;;;;5151754;27;20023;-61
2022/11/26 16:01:17;;;;;;;19.05;6.15;;;9.40;83.30;;;;;;5150801;27;20042;-62
2022/11/26 16:03:48;;;;;;;18.60;6.82;;;9.40;83.40;;;;;;5151189;27;20422;-61
2022/11/26 16:06:37;;;;;;;13.15;4.90;;;9.30;83.40;;;;;;5151303;27;20378;-63
2022/11/26 16:09:23;;;;;;;18.55;4.65;;;9.30;83.80;;;;;;5151090;27;20423;-61
2022/11/26 16:11:57;;;;;;;19.65;4.97;;;9.40;83.70;;;;;;5149580;27;20041;-63
2022/11/26 16:14:32;;;;;;;15.23;3.97;;;9.30;83.40;;;;;;5137493;27;20027;-62
2022/11/26 16:17:00;;;;;;;11.07;3.58;;;9.30;83.60;;;;;;5138038;27;20023;-62
2022/11/26 16:19:29;;;;;;;16.52;4.63;;;9.30;83.20;;;;;;5137368;27;20089;-63
2022/11/26 16:21:55;;;;;;;21.52;3.75;;;9.30;83.30;;;;;;5136137;27;20128;-63
2022/11/26 16:24:41;;;;;;;18.00;5.50;;;9.30;83.20;;;;;;5135744;27;20023;-62
2022/11/26 16:27:24;;;;;;;5.57;3.33;;;9.20;83.20;;;;;;5137256;27;20019;-63
2022/11/26 16:29:50;;;;;;;9.55;4.40;;;9.20;83.60;;;;;;5137272;27;20023;-61
2022/11/26 16:32:17;;;;;;;15.05;4.85;;;9.10;83.80;;;;;;5137110;27;20485;-61
2022/11/26 16:34:43;;;;;;;14.60;4.93;;;9.10;83.60;;;;;;5136838;27;20050;-62
2022/11/26 16:37:25;;;;;;;15.68;5.82;;;9.10;83.60;;;;;;5136591;27;20054;-62
2022/11/26 16:39:59;;;;;;;15.15;4.55;;;9.10;83.60;;;;;;5136771;27;20143;-62
2022/11/26 16:42:24;;;;;;;16.33;4.32;;;9.00;83.70;;;;;;5137568;27;20471;-63
2022/11/26 16:44:50;;;;;;;26.80;4.75;;;9.00;83.80;;;;;;5137320;27;20030;-62
2022/11/26 16:47:30;;;;;;;16.15;4.68;;;8.90;83.90;;;;;;5137947;27;20019;-62
2022/11/26 16:49:55;;;;;;;17.15;4.32;;;8.90;84.00;;;;;;5137447;27;20019;-62
2022/11/26 16:52:21;;;;;;;18.50;7.47;;;8.90;84.10;;;;;;5136573;27;20029;-61
2022/11/26 16:54:48;;;;;;;20.40;6.93;;;8.80;84.00;;;;;;5136969;27;20026;-62
2022/11/26 16:57:17;;;;;;;14.57;4.60;;;8.80;84.10;;;;;;5136508;27;20379;-63
2022/11/26 16:59:47;;;;;;;14.40;5.13;;;8.80;83.90;;;;;;5119542;27;20480;-62
2022/11/26 17:02:20;;;;;;;18.83;3.35;;;8.80;84.00;;;;;;5135902;27;20062;-63
2022/11/26 17:04:46;;;;;;;20.42;5.93;;;8.80;84.10;;;;;;5136296;27;20019;-62
2022/11/26 17:07:14;;;;;;;7.15;3.65;;;8.80;83.80;;;;;;5136071;27;20027;-62
2022/11/26 17:09:40;;;;;;;11.25;4.90;;;8.80;84.20;;;;;;5135875;27;20065;-62
2022/11/26 17:12:20;;;;;;;13.50;4.55;;;8.70;84.10;;;;;;5135975;27;20069;-62
2022/11/26 17:14:46;;;;;;;10.15;4.22;;;8.70;84.30;;;;;;5136071;27;20069;-63
2022/11/26 17:17:19;;;;;;;11.07;5.57;;;8.80;83.90;;;;;;5135933;27;20386;-61
2022/11/26 17:19:45;;;;;;;17.95;6.47;;;8.70;83.80;;;;;;5135974;27;20019;-62
2022/11/26 17:22:12;;;;;;;13.68;5.75;;;8.60;84.10;;;;;;5135967;27;20079;-62
2022/11/26 17:24:39;;;;;;;17.88;8.82;;;8.60;84.30;;;;;;5116425;27;20028;-62
2022/11/26 17:27:13;;;;;;;11.60;5.47;;;8.50;84.30;;;;;;5135571;27;20050;-61
2022/11/26 17:29:39;;;;;;;12.23;5.03;;;8.50;84.20;;;;;;5134273;27;20023;-62
2022/11/26 17:32:06;;;;;;;16.90;4.25;;;8.40;84.40;;;;;;5135856;27;20027;-61
2022/11/26 17:34:31;;;;;;;12.77;3.88;;;8.40;84.60;;;;;;5135350;27;20027;-62
2022/11/26 17:36:58;;;;;;;15.80;5.43;;;8.30;84.60;;;;;;5134097;27;20027;-65
2022/11/26 17:39:26;;;;;;;10.52;4.18;;;8.30;84.80;;;;;;5135181;27;20461;-62
2022/11/26 17:41:53;;;;;;;11.43;5.30;;;8.20;85.00;;;;;;5135120;27;20062;-61
2022/11/26 17:44:18;;;;;;;6.82;3.05;;;8.10;85.10;;;;;;5133814;27;20035;-61
2022/11/26 17:46:44;;;;;;;9.93;4.05;;;8.10;85.30;;;;;;5135312;27;20049;-62
2022/11/26 17:49:10;;;;;;;10.38;3.92;;;8.10;85.40;;;;;;5134899;27;20072;-62
2022/11/26 17:51:35;;;;;;;9.88;3.53;;;8.00;85.40;;;;;;5135280;27;20036;-63
2022/11/26 17:54:01;;;;;;;10.68;4.25;;;7.90;85.60;;;;;;5135101;27;20027;-62
2022/11/26 17:56:27;;;;;;;12.82;4.38;;;7.90;85.90;;;;;;5135118;27;20026;-61
2022/11/26 17:58:53;;;;;;;10.55;4.00;;;7.90;85.80;;;;;;5135351;27;20019;-62
2022/11/26 18:01:18;;;;;;;15.13;4.93;;;7.80;85.70;;;;;;5135178;27;20047;-62
2022/11/26 18:03:45;;;;;;;23.33;5.43;;;7.80;85.80;;;;;;5134897;27;20098;-62
2022/11/26 18:06:16;;;;;;;12.57;4.60;;;7.80;86.00;;;;;;5135022;27;20019;-62
2022/11/26 18:08:43;;;;;;;13.38;5.07;;;7.80;85.80;;;;;;5135176;27;20046;-61
2022/11/26 18:11:14;;;;;;;15.35;6.03;;;7.70;86.10;;;;;;5135196;27;20481;-63
2022/11/26 18:13:39;;;;;;;12.70;5.38;;;7.70;86.10;;;;;;5134986;27;20470;-62
2022/11/26 18:16:05;;;;;;;14.75;5.53;;;7.60;86.30;;;;;;5135105;27;20023;-62
2022/11/26 18:18:31;;;;;;;17.55;5.43;;;7.50;86.50;;;;;;5135411;27;20030;-62
2022/11/26 18:20:56;;;;;;;23.92;5.93;;;7.60;86.40;;;;;;5134863;27;20095;-61
2022/11/26 18:23:22;;;;;;;14.45;5.93;;;7.50;86.40;;;;;;5134661;27;20061;-62
2022/11/26 18:25:47;;;;;;;20.17;7.15;;;7.50;86.50;;;;;;5133261;27;20063;-60
2022/11/26 18:28:17;;;;;;;11.65;6.38;;;7.30;86.70;;;;;;5134722;27;20023;-62
2022/11/26 18:30:43;;;;;;;11.73;5.07;;;7.30;86.90;;;;;;5134397;27;20434;-61
2022/11/26 18:33:13;;;;;;;17.50;5.10;;;7.40;87.10;;;;;;5134799;27;20375;-61
2022/11/26 18:35:40;;;;;;;17.57;6.87;;;7.40;86.80;;;;;;5134531;27;20027;-61
2022/11/26 18:38:08;;;;;;;22.75;9.55;;;7.30;87.00;;;;;;5134786;27;20106;-61
2022/11/26 18:40:34;;;;;;;15.82;7.47;;;7.40;87.00;;;;;;5134588;27;20038;-62
2022/11/26 18:43:00;;;;;;;12.57;4.60;;;7.30;86.80;;;;;;5135093;27;20031;-61
2022/11/26 18:45:26;;;;;;;15.07;5.40;;;7.30;86.80;;;;;;5134658;27;20030;-52
2022/11/26 18:47:52;;;;;;;17.25;5.30;;;7.20;87.20;;;;;;5135035;27;20023;-50
2022/11/26 18:50:17;;;;;;;16.67;6.38;;;7.20;87.30;;;;;;5134704;27;20485;-51
2022/11/26 18:52:43;;;;;;;19.00;7.07;;;7.10;87.30;;;;;;5134235;27;20038;-52
2022/11/26 18:55:12;;;;;;;15.25;6.35;;;7.20;87.50;;;;;;5134467;27;20348;-49
2022/11/26 18:57:38;;;;;;;15.68;6.63;;;7.10;87.40;;;;;;5132993;27;20110;-52
2022/11/26 19:00:04;;;;;;;14.23;6.13;;;7.00;87.50;;;;;;5134828;28;20110;-61
2022/11/26 19:02:30;;;;;;;28.08;6.28;;;7.00;87.60;;;;;;5132570;28;20035;-62
2022/11/26 19:04:55;;;;;;;10.13;5.50;;;6.90;87.90;;;;;;5134311;28;20022;-61
2022/11/26 19:07:21;;;;;;;18.02;5.22;;;6.90;88.00;;;;;;5134672;28;20027;-62
2022/11/26 19:09:47;;;;;;;13.52;5.90;;;7.00;88.10;;;;;;5134354;28;20563;-62
2022/11/26 19:12:13;;;;;;;14.07;4.82;;;7.10;87.70;;;;;;5134443;28;20105;-61
2022/11/26 19:14:39;;;;;;;10.70;5.25;;;7.00;87.50;;;;;;5135282;27;20119;-62
2022/11/26 19:17:04;;;;;;;14.20;6.68;;;6.90;87.70;;;;;;5135515;28;20467;-63
2022/11/26 19:19:31;;;;;;;14.57;6.80;;;6.80;87.90;;;;;;5135306;28;20027;-62
2022/11/26 19:21:57;;;;;;;17.30;5.28;;;6.80;88.20;;;;;;5135980;28;20020;-62
2022/11/26 19:24:23;;;;;;;13.35;4.30;;;6.80;88.30;;;;;;5133666;28;20031;-61
2022/11/26 19:26:48;;;;;;;15.13;6.25;;;6.90;88.10;;;;;;5134783;28;20019;-62
2022/11/26 19:29:14;;;;;;;22.73;6.15;;;6.90;88.10;;;;;;5135515;28;20019;-62
2022/11/26 19:31:40;;;;;;;18.63;5.97;;;6.80;88.10;;;;;;5134613;28;20023;-63
2022/11/26 19:34:11;;;;;;;17.95;7.03;;;6.80;88.20;;;;;;5134470;28;20050;-62
2022/11/26 19:36:36;;;;;;;;;;;6.80;88.50;;;;;;5134845;28;20106;-61
2022/11/26 19:39:03;;;;;;;16.75;6.65;;;6.80;88.20;;;;;;5134173;27;19934;-62
2022/11/26 19:41:29;;;;;;;24.73;7.28;;;6.80;88.10;;;;;;5133688;28;20059;-60
2022/11/26 19:43:55;;;;;;;12.38;6.68;;;6.80;88.20;;;;;;5134429;28;20126;-61
2022/11/26 19:46:22;;;;;;;20.23;6.50;;;6.80;88.20;;;;;;5134058;28;20025;-62
2022/11/26 19:48:49;;;;;;;24.67;8.80;;;6.60;88.40;;;;;;5136120;27;20019;-59
2022/11/26 19:51:17;;;;;;;15.95;6.38;;;6.60;88.60;;;;;;5137866;27;20100;-62
2022/11/26 19:53:49;;;;;;;16.20;6.00;;;6.50;88.90;;;;;;5138667;27;20044;-62
2022/11/26 19:56:18;;;;;;;18.58;7.90;;;6.50;88.90;;;;;;5137863;27;20031;-61
2022/11/26 19:58:44;;;;;;;19.77;5.78;;;6.40;89.00;;;;;;5137832;27;20027;-61
2022/11/26 20:01:12;;;;;;;14.27;5.15;;;6.50;89.10;;;;;;5137334;27;20054;-62
2022/11/26 20:03:37;;;;;;;19.05;5.78;;;6.40;89.10;;;;;;5138065;27;20121;-63
2022/11/26 20:06:05;;;;;;;16.17;5.93;;;6.30;89.20;;;;;;5137782;27;20027;-61
2022/11/26 20:08:31;;;;;;;11.00;5.18;;;6.30;89.40;;;;;;5137605;27;20023;-62
2022/11/26 20:11:06;;;;;;;10.52;4.93;;;6.30;89.40;;;;;;5136255;27;20160;-62
2022/11/26 20:13:34;;;;;;;16.90;5.10;;;6.30;89.60;;;;;;5137541;27;20055;-62
2022/11/26 20:16:12;;;;;;;18.40;6.40;;;6.30;89.30;;;;;;5137750;27;20102;-61
2022/11/26 20:18:39;;;;;;;15.00;6.28;;;6.30;89.30;;;;;;5136013;27;20106;-62
2022/11/26 20:21:09;;;;;;;10.82;5.63;;;6.30;89.40;;;;;;5137284;27;20072;-60
2022/11/26 20:23:36;;;;;;;14.10;5.90;;;6.30;89.30;;;;;;5137632;27;20095;-60
2022/11/26 20:26:02;;;;;;;13.52;5.82;;;6.30;89.40;;;;;;5137171;27;20035;-62
2022/11/26 20:28:28;;;;;;;11.15;6.05;;;6.30;89.50;;;;;;5137139;27;20027;-61
2022/11/26 20:30:54;;;;;;;16.17;5.80;;;6.30;89.50;;;;;;5136773;27;20024;-62
2022/11/26 20:33:21;;;;;;;17.60;6.45;;;6.20;89.50;;;;;;5135566;27;20043;-62
2022/11/26 20:35:47;;;;;;;12.05;5.05;;;6.20;89.50;;;;;;5135710;27;20102;-62
2022/11/26 20:38:13;;;;;;;15.60;5.93;;;6.30;89.60;;;;;;5136813;27;20080;-60
2022/11/26 20:40:41;;;;;;;16.23;5.28;;;6.30;89.40;;;;;;5136779;27;20015;-60
2022/11/26 20:43:07;;;;;;;21.30;6.05;;;6.30;89.40;;;;;;5137149;27;20023;-61
2022/11/26 20:45:33;;;;;;;17.92;5.75;;;6.20;89.40;;;;;;5137451;27;20057;-60
2022/11/26 20:47:59;;;;;;;16.50;6.55;;;6.20;89.40;;;;;;5136873;27;20042;-60
2022/11/26 20:50:25;;;;;;;19.63;6.03;;;6.20;89.40;;;;;;5136830;27;20027;-61
2022/11/26 20:52:50;;;;;;;11.55;4.70;;;6.30;89.40;;;;;;5136551;27;20063;-60
2022/11/26 20:55:20;;;;;;;10.18;4.35;;;6.30;89.10;;;;;;5136783;27;20424;-60
2022/11/26 20:57:47;;;;;;;19.43;6.70;;;6.30;89.00;;;;;;5138285;27;20068;-60
2022/11/26 21:00:15;;;;;;;17.25;5.97;;;6.30;89.00;;;;;;5136788;27;20047;-62
